createdAt,value
2018-06-27T00:00:14.970Z,101945.57
2018-06-27T00:02:43.641Z,101948.40
2018-06-27T00:05:12.216Z,101941.50
2018-06-27T00:07:40.746Z,101938.78
2018-06-27T00:10:09.440Z,101939.13
2018-06-27T00:12:38.029Z,101935.48
2018-06-27T00:15:06.677Z,101941.84
2018-06-27T00:17:35.497Z,101936.88
2018-06-27T00:20:04.123Z,101933.87
2018-06-27T00:22:32.879Z,101930.91
2018-06-27T00:25:01.315Z,101929.52
2018-06-27T00:27:30.303Z,101933.45
2018-06-27T00:29:58.763Z,101927.13
2018-06-27T00:32:27.242Z,101937.91
2018-06-27T00:34:55.808Z,101928.20
2018-06-27T00:37:24.282Z,101935.70
2018-06-27T00:39:52.969Z,101934.87
2018-06-27T00:42:21.427Z,101925.69
2018-06-27T00:44:49.879Z,101940.27
2018-06-27T00:47:18.435Z,101937.52
2018-06-27T00:49:46.951Z,101938.34
2018-06-27T00:52:15.589Z,101938.41
2018-06-27T00:54:44.476Z,101952.39
2018-06-27T00:57:13.155Z,101951.42
2018-06-27T00:59:41.847Z,101948.06
2018-06-27T01:02:11.171Z,101938.40
2018-06-27T01:04:39.823Z,101938.73
2018-06-27T01:07:08.606Z,101936.02
2018-06-27T01:09:37.914Z,101943.20
2018-06-27T01:12:06.380Z,101937.17
2018-06-27T01:14:34.986Z,101934.40
2018-06-27T01:17:03.892Z,101940.75
2018-06-27T01:19:32.563Z,101930.36
2018-06-27T01:22:01.262Z,101940.88
2018-06-27T01:24:29.763Z,101940.61
2018-06-27T01:26:58.274Z,101942.52
2018-06-27T01:29:27.168Z,101945.86
2018-06-27T01:31:56.156Z,101949.45
2018-06-27T01:34:24.560Z,101951.73
2018-06-27T01:36:53.175Z,101950.05
2018-06-27T01:39:21.660Z,101959.98
2018-06-27T01:41:50.122Z,101958.87
2018-06-27T01:44:18.644Z,101955.25
2018-06-27T01:46:47.489Z,101952.30
2018-06-27T01:49:15.915Z,101949.02
2018-06-27T01:51:44.355Z,101951.73
2018-06-27T01:54:12.746Z,101952.56
2018-06-27T01:56:41.282Z,101953.95
2018-06-27T01:59:09.851Z,101949.45
2018-06-27T02:01:38.571Z,101953.36
2018-06-27T02:04:07.248Z,101947.25
2018-06-27T02:06:35.758Z,101947.56
2018-06-27T02:09:05.827Z,101946.50
2018-06-27T02:11:34.350Z,101951.46
2018-06-27T02:14:03.269Z,101948.42
2018-06-27T02:16:31.731Z,101953.70
2018-06-27T02:19:00.438Z,101950.32
2018-06-27T02:21:29.107Z,101956.95
2018-06-27T02:23:57.771Z,101958.32
2018-06-27T02:26:26.571Z,101956.74
2018-06-27T02:28:54.986Z,101958.16
2018-06-27T02:31:23.436Z,101957.81
2018-06-27T02:33:51.933Z,101958.95
2018-06-27T02:36:20.394Z,101974.20
2018-06-27T02:38:49.056Z,101970.58
2018-06-27T02:41:17.477Z,101961.54
2018-06-27T02:43:46.189Z,101966.23
2018-06-27T02:46:14.729Z,101972.81
2018-06-27T02:48:43.428Z,101967.02
2018-06-27T02:51:11.917Z,101965.37
2018-06-27T02:53:40.603Z,101967.88
2018-06-27T02:56:10.777Z,101973.98
2018-06-27T02:58:39.379Z,101975.94
2018-06-27T03:01:07.875Z,101976.16
2018-06-27T03:03:36.282Z,101981.73
2018-06-27T03:06:04.798Z,101982.06
2018-06-27T03:08:33.290Z,101985.41
2018-06-27T03:11:02.208Z,101991.19
2018-06-27T03:13:30.684Z,101986.26
2018-06-27T03:15:59.801Z,102001.42
2018-06-27T03:18:28.912Z,101996.45
2018-06-27T03:20:58.107Z,101999.52
2018-06-27T03:23:26.623Z,101998.96
2018-06-27T03:25:55.110Z,101999.23
2018-06-27T03:28:23.778Z,102003.07
2018-06-27T03:30:52.323Z,102002.84
2018-06-27T03:33:20.853Z,102010.02
2018-06-27T03:35:49.315Z,102006.98
2018-06-27T03:38:17.930Z,102006.43
2018-06-27T03:40:46.408Z,102008.63
2018-06-27T03:43:14.843Z,102008.12
2018-06-27T03:45:43.824Z,102019.66
2018-06-27T03:48:12.633Z,102016.37
2018-06-27T03:50:41.219Z,102017.20
2018-06-27T03:53:09.814Z,102018.02
2018-06-27T03:55:38.267Z,102022.98
2018-06-27T03:58:06.849Z,102021.31
2018-06-27T04:03:30.862Z,102022.40
2018-06-27T04:05:59.554Z,102025.68
2018-06-27T04:08:28.402Z,102027.59
2018-06-27T04:10:57.153Z,102029.45
2018-06-27T04:13:26.165Z,102029.40
2018-06-27T04:15:54.584Z,102027.72
2018-06-27T04:18:23.065Z,102030.11
2018-06-27T04:20:51.622Z,102036.28
2018-06-27T04:23:20.243Z,102038.41
2018-06-27T04:25:48.916Z,102040.17
2018-06-27T04:28:17.530Z,102035.06
2018-06-27T04:30:46.283Z,102042.09
2018-06-27T04:33:14.845Z,102045.74
2018-06-27T04:35:43.430Z,102048.37
2018-06-27T04:38:12.019Z,102048.58
2018-06-27T04:40:40.684Z,102039.95
2018-06-27T04:43:09.438Z,102045.03
2018-06-27T04:45:37.906Z,102044.75
2018-06-27T04:48:06.588Z,102043.45
2018-06-27T04:50:35.456Z,102046.77
2018-06-27T04:53:04.376Z,102048.70
2018-06-27T04:55:33.478Z,102052.08
2018-06-27T04:58:02.267Z,102051.09
2018-06-27T05:00:31.759Z,102049.97
2018-06-27T05:03:00.319Z,102056.23
2018-06-27T05:05:28.824Z,102055.49
2018-06-27T05:07:57.391Z,102052.91
2018-06-27T05:10:26.116Z,102056.34
2018-06-27T05:12:54.674Z,102060.25
2018-06-27T05:15:23.478Z,102062.21
2018-06-27T05:17:52.082Z,102068.76
2018-06-27T05:20:20.771Z,102063.57
2018-06-27T05:22:49.398Z,102065.53
2018-06-27T05:25:18.284Z,102066.73
2018-06-27T05:27:46.939Z,102067.83
2018-06-27T05:30:15.678Z,102074.53
2018-06-27T05:32:44.233Z,102069.02
2018-06-27T05:35:12.849Z,102071.42
2018-06-27T05:37:41.304Z,102073.44
2018-06-27T05:40:10.415Z,102072.05
2018-06-27T05:42:39.256Z,102077.80
2018-06-27T05:45:07.827Z,102082.02
2018-06-27T05:47:36.478Z,102078.00
2018-06-27T05:50:05.718Z,102074.36
2018-06-27T05:52:34.150Z,102082.98
2018-06-27T05:55:07.658Z,102081.76
2018-06-27T05:57:37.469Z,102091.02
2018-06-27T06:00:07.017Z,102090.63
2018-06-27T06:02:35.599Z,102093.31
2018-06-27T06:05:04.975Z,102092.88
2018-06-27T06:07:34.418Z,102094.67
2018-06-27T06:10:03.230Z,102097.78
2018-06-27T06:12:32.527Z,102101.20
2018-06-27T06:15:01.155Z,102105.52
2018-06-27T06:17:29.842Z,102104.03
2018-06-27T06:19:58.496Z,102104.77
2018-06-27T06:22:27.164Z,102106.00
2018-06-27T06:24:56.461Z,102108.39
2018-06-27T06:27:25.381Z,102110.30
2018-06-27T06:29:54.089Z,102110.31
2018-06-27T06:32:22.918Z,102110.45
2018-06-27T06:34:51.602Z,102117.27
2018-06-27T06:37:20.132Z,102117.28
2018-06-27T06:39:49.354Z,102118.89
2018-06-27T06:42:17.894Z,102118.27
2018-06-27T06:44:46.961Z,102112.66
2018-06-27T06:47:15.895Z,102116.89
2018-06-27T06:49:44.541Z,102113.97
2018-06-27T06:52:13.156Z,102117.30
2018-06-27T06:54:41.712Z,102111.44
2018-06-27T06:57:10.216Z,102121.39
2018-06-27T06:59:38.930Z,102122.25
2018-06-27T07:02:07.617Z,102121.91
2018-06-27T07:04:36.630Z,102121.19
2018-06-27T07:07:05.126Z,102117.00
2018-06-27T07:09:33.798Z,102125.80
2018-06-27T07:12:03.048Z,102119.05
2018-06-27T07:14:31.798Z,102124.18
2018-06-27T07:17:00.361Z,102122.00
2018-06-27T07:19:28.994Z,102126.08
2018-06-27T07:21:57.708Z,102120.47
2018-06-27T07:24:26.962Z,102117.11
2018-06-27T07:26:56.174Z,102115.94
2018-06-27T07:29:24.755Z,102114.39
2018-06-27T07:31:53.574Z,102114.20
2018-06-27T07:34:22.127Z,102118.56
2018-06-27T07:36:51.118Z,102125.05
2018-06-27T07:39:20.709Z,102121.52
2018-06-27T07:41:49.877Z,102125.05
2018-06-27T07:44:19.512Z,102130.12
2018-06-27T07:46:48.469Z,102137.27
2018-06-27T07:49:17.145Z,102135.56
2018-06-27T07:51:46.123Z,102136.69
2018-06-27T07:54:16.748Z,102132.94
2018-06-27T07:56:45.454Z,102136.78
2018-06-27T07:59:14.326Z,102136.54
2018-06-27T08:01:42.965Z,102130.66
2018-06-27T08:04:11.511Z,102129.30
2018-06-27T08:06:46.985Z,102136.52
2018-06-27T08:09:15.848Z,102127.89
2018-06-27T08:11:45.047Z,102128.87
2018-06-27T08:14:13.796Z,102128.98
2018-06-27T08:16:42.971Z,102131.06
2018-06-27T08:19:11.597Z,102132.98
2018-06-27T08:21:41.410Z,102133.72
2018-06-27T08:24:10.559Z,102123.34
2018-06-27T08:26:39.115Z,102126.49
2018-06-27T08:29:08.104Z,102137.34
2018-06-27T08:31:36.858Z,102124.87
2018-06-27T08:34:05.726Z,102122.00
2018-06-27T08:36:34.236Z,102125.98
2018-06-27T08:39:04.014Z,102137.62
2018-06-27T08:41:32.568Z,102132.69
2018-06-27T08:44:01.161Z,102125.36
2018-06-27T08:46:30.007Z,102120.05
2018-06-27T08:48:58.672Z,102121.80
2018-06-27T08:51:27.595Z,102117.63
2018-06-27T08:53:56.240Z,102123.55
2018-06-27T08:56:24.759Z,102126.36
2018-06-27T08:58:53.726Z,102129.44
2018-06-27T09:01:23.156Z,102125.70
2018-06-27T09:06:29.602Z,102137.20
2018-06-27T09:08:58.904Z,102139.50
2018-06-27T09:11:34.029Z,102133.97
2018-06-27T09:14:04.873Z,102130.59
2018-06-27T09:16:34.479Z,102135.80
2018-06-27T09:19:03.088Z,102144.95
2018-06-27T09:21:31.848Z,102138.73
2018-06-27T09:24:00.358Z,102141.58
2018-06-27T09:26:29.282Z,102137.83
2018-06-27T09:28:57.884Z,102143.80
2018-06-27T09:31:33.251Z,102146.55
2018-06-27T09:34:02.595Z,102143.98
2018-06-27T09:36:31.644Z,102141.03
2018-06-27T09:39:00.343Z,102147.38
2018-06-27T09:41:33.798Z,102144.20
2018-06-27T09:44:04.253Z,102147.28
2018-06-27T09:46:33.384Z,102156.95
2018-06-27T09:49:02.950Z,102147.44
2018-06-27T09:51:31.514Z,102141.08
2018-06-27T09:54:00.113Z,102134.92
2018-06-27T09:56:28.728Z,102140.96
2018-06-27T09:58:58.455Z,102134.01
2018-06-27T10:01:28.147Z,102137.87
2018-06-27T10:03:57.451Z,102136.01
2018-06-27T10:06:26.274Z,102134.10
2018-06-27T10:08:54.810Z,102138.77
2018-06-27T10:11:23.446Z,102130.81
2018-06-27T10:13:52.312Z,102132.38
2018-06-27T10:16:21.315Z,102136.88
2018-06-27T10:18:49.865Z,102131.70
2018-06-27T10:21:18.614Z,102131.82
2018-06-27T10:23:47.116Z,102128.75
2018-06-27T10:26:15.991Z,102121.66
2018-06-27T10:28:45.231Z,102124.61
2018-06-27T10:31:13.973Z,102117.95
2018-06-27T10:33:42.774Z,102120.42
2018-06-27T10:36:12.540Z,102108.11
2018-06-27T10:38:41.229Z,102106.11
2018-06-27T10:41:10.707Z,102107.83
2018-06-27T10:43:39.479Z,102100.87
2018-06-27T10:46:08.540Z,102106.95
2018-06-27T10:48:38.073Z,102106.42
2018-06-27T10:51:13.252Z,102102.27
2018-06-27T10:53:42.558Z,102098.73
2018-06-27T10:56:13.252Z,102088.23
2018-06-27T10:58:42.341Z,102096.08
2018-06-27T11:01:11.345Z,102116.77
2018-06-27T11:03:40.149Z,102104.37
2018-06-27T11:06:08.846Z,102115.72
2018-06-27T11:08:37.741Z,102108.37
2018-06-27T11:11:06.303Z,102113.03
2018-06-27T11:13:36.024Z,102109.23
2018-06-27T11:16:05.355Z,102106.22
2018-06-27T11:18:34.212Z,102096.36
2018-06-27T11:21:02.772Z,102098.05
2018-06-27T11:23:32.587Z,102096.80
2018-06-27T11:26:01.547Z,102098.25
2018-06-27T11:28:30.034Z,102102.04
2018-06-27T11:30:58.715Z,102104.84
2018-06-27T11:33:27.713Z,102106.12
2018-06-27T11:35:56.404Z,102098.96
2018-06-27T11:38:25.163Z,102099.14
2018-06-27T11:40:54.088Z,102092.67
2018-06-27T11:43:23.112Z,102090.20
2018-06-27T11:45:51.823Z,102087.63
2018-06-27T11:48:20.475Z,102079.60
2018-06-27T11:50:49.290Z,102085.91
2018-06-27T11:53:18.319Z,102090.11
2018-06-27T11:55:46.847Z,102084.61
2018-06-27T11:58:15.520Z,102072.09
2018-06-27T12:00:45.439Z,102071.73
2018-06-27T12:03:13.956Z,102071.30
2018-06-27T12:05:43.755Z,102069.74
2018-06-27T12:08:12.595Z,102076.59
2018-06-27T12:10:42.144Z,102074.27
2018-06-27T12:13:11.084Z,102066.84
2018-06-27T12:15:39.988Z,102077.77
2018-06-27T12:18:09.186Z,102074.53
2018-06-27T12:20:37.712Z,102070.73
2018-06-27T12:23:06.640Z,102063.66
2018-06-27T12:25:35.318Z,102062.18
2018-06-27T12:28:04.251Z,102066.09
2018-06-27T12:30:33.653Z,102062.17
2018-06-27T12:33:02.974Z,102065.36
2018-06-27T12:35:31.852Z,102055.45
2018-06-27T12:38:00.620Z,102053.52
2018-06-27T12:40:29.369Z,102054.23
2018-06-27T12:42:58.588Z,102043.78
2018-06-27T12:45:27.424Z,102039.06
2018-06-27T12:47:55.881Z,102044.69
2018-06-27T12:50:24.890Z,102051.77
2018-06-27T12:52:53.520Z,102050.53
2018-06-27T12:55:22.435Z,102045.08
2018-06-27T12:57:51.038Z,102034.20
2018-06-27T13:00:19.926Z,102039.83
2018-06-27T13:02:48.720Z,102029.46
2018-06-27T13:05:17.577Z,102032.21
2018-06-27T13:07:46.758Z,102027.14
2018-06-27T13:10:15.391Z,102037.96
2018-06-27T13:12:44.018Z,102041.66
2018-06-27T13:15:12.837Z,102042.42
2018-06-27T13:17:41.340Z,102035.42
2018-06-27T13:20:10.184Z,102045.56
2018-06-27T13:22:38.950Z,102040.83
2018-06-27T13:25:07.658Z,102030.56
2018-06-27T13:27:36.363Z,102024.98
2018-06-27T13:30:06.116Z,102030.45
2018-06-27T13:32:35.727Z,102028.98
2018-06-27T13:35:04.813Z,102027.86
2018-06-27T13:37:40.194Z,102021.73
2018-06-27T13:40:09.006Z,102031.87
2018-06-27T13:42:37.679Z,102022.02
2018-06-27T13:45:06.719Z,102022.80
2018-06-27T13:47:35.437Z,102026.70
2018-06-27T13:50:04.317Z,102018.78
2018-06-27T13:52:34.883Z,102025.74
2018-06-27T13:55:04.108Z,102020.43
2018-06-27T13:57:32.828Z,102017.98
2018-06-27T14:00:01.516Z,102009.34
2018-06-27T14:02:31.361Z,102011.15
2018-06-27T14:05:02.053Z,102008.64
2018-06-27T14:07:31.350Z,102023.80
2018-06-27T14:10:00.591Z,102031.23
2018-06-27T14:12:29.403Z,102024.28
2018-06-27T14:14:58.550Z,102010.91
2018-06-27T14:17:28.084Z,102007.59
2018-06-27T14:19:56.602Z,102001.92
2018-06-27T14:22:25.455Z,102013.60
2018-06-27T14:24:54.268Z,101999.73
2018-06-27T14:27:23.962Z,101994.52
2018-06-27T14:29:52.463Z,101996.69
2018-06-27T14:32:22.824Z,101995.40
2018-06-27T14:34:51.940Z,101995.23
2018-06-27T14:37:20.552Z,101992.66
2018-06-27T14:39:50.949Z,101999.70
2018-06-27T14:42:19.908Z,101997.15
2018-06-27T14:44:49.029Z,101998.49
2018-06-27T14:47:17.979Z,101996.29
2018-06-27T14:49:47.128Z,101996.88
2018-06-27T14:52:16.440Z,101995.16
2018-06-27T14:54:49.342Z,101983.80
2018-06-27T14:57:18.363Z,101993.25
2018-06-27T14:59:48.948Z,101992.41
2018-06-27T15:02:19.471Z,101991.08
2018-06-27T15:04:58.344Z,101992.74
2018-06-27T15:07:28.829Z,101994.80
2018-06-27T15:09:57.679Z,101984.99
2018-06-27T15:12:26.494Z,101993.47
2018-06-27T15:14:57.078Z,101997.17
2018-06-27T15:17:26.494Z,101994.43
2018-06-27T15:19:55.936Z,101996.50
2018-06-27T15:22:24.578Z,101996.02
2018-06-27T15:24:54.581Z,101986.55
2018-06-27T15:27:23.423Z,101990.70
2018-06-27T15:29:53.062Z,101988.27
2018-06-27T15:32:22.562Z,101987.85
2018-06-27T15:34:51.883Z,101989.77
2018-06-27T15:37:21.831Z,101979.86
2018-06-27T15:39:50.505Z,101984.34
2018-06-27T15:42:19.840Z,101989.54
2018-06-27T15:44:49.180Z,101978.56
2018-06-27T15:47:18.749Z,101985.81
2018-06-27T15:49:47.961Z,101978.33
2018-06-27T15:52:16.600Z,101980.62
2018-06-27T15:54:45.831Z,101980.13
2018-06-27T15:57:14.944Z,101979.42
2018-06-27T15:59:49.419Z,101976.41
2018-06-27T16:02:18.674Z,101981.30
2018-06-27T16:04:47.899Z,101970.33
2018-06-27T16:07:18.391Z,101966.78
2018-06-27T16:09:47.740Z,101959.53
2018-06-27T16:12:16.644Z,101967.78
2018-06-27T16:14:45.397Z,101960.98
2018-06-27T16:17:14.193Z,101964.98
2018-06-27T16:19:42.908Z,101955.39
2018-06-27T16:22:11.842Z,101950.66
2018-06-27T16:24:40.454Z,101952.56
2018-06-27T16:27:09.770Z,101952.78
2018-06-27T16:29:38.528Z,101954.45
2018-06-27T16:32:07.207Z,101954.07
2018-06-27T16:34:36.018Z,101958.23
2018-06-27T16:37:04.751Z,101956.10
2018-06-27T16:39:33.537Z,101952.56
2018-06-27T16:42:02.276Z,101945.98
2018-06-27T16:44:31.223Z,101949.08
2018-06-27T16:47:00.346Z,101949.13
2018-06-27T16:49:29.172Z,101948.25
2018-06-27T16:51:57.816Z,101948.34
2018-06-27T16:54:27.228Z,101949.09
2018-06-27T16:56:55.933Z,101940.48
2018-06-27T16:59:24.728Z,101935.19
2018-06-27T17:01:53.500Z,101943.77
2018-06-27T17:04:22.096Z,101946.67
2018-06-27T17:06:51.794Z,101942.13
2018-06-27T17:09:20.808Z,101945.27
2018-06-27T17:11:49.621Z,101945.22
2018-06-27T17:14:18.771Z,101941.31
2018-06-27T17:16:48.216Z,101937.99
2018-06-27T17:19:17.044Z,101938.55
2018-06-27T17:21:45.797Z,101945.85
2018-06-27T17:24:14.707Z,101943.34
2018-06-27T17:26:44.011Z,101944.56
2018-06-27T17:29:13.075Z,101946.80
2018-06-27T17:31:41.970Z,101949.36
2018-06-27T17:34:10.936Z,101959.02
2018-06-27T17:36:40.653Z,101969.42
2018-06-27T17:39:10.351Z,101965.33
2018-06-27T17:41:39.607Z,101963.59
2018-06-27T17:44:08.677Z,101961.95
2018-06-27T17:46:37.416Z,101965.09
2018-06-27T17:49:06.535Z,101967.10
2018-06-27T17:51:35.130Z,101969.27
2018-06-27T17:54:04.640Z,101968.80
2018-06-27T17:56:34.494Z,101969.52
2018-06-27T17:59:03.673Z,101965.20
2018-06-27T18:01:33.785Z,101965.41
2018-06-27T18:04:02.634Z,101960.62
2018-06-27T18:06:31.783Z,101970.30
2018-06-27T18:09:00.272Z,101962.79
2018-06-27T18:11:35.594Z,101964.05
2018-06-27T18:14:04.872Z,101965.52
2018-06-27T18:16:35.515Z,101972.13
2018-06-27T18:19:04.916Z,101966.92
2018-06-27T18:21:35.163Z,101970.84
2018-06-27T18:24:04.051Z,101970.13
2018-06-27T18:26:34.879Z,101971.40
2018-06-27T18:29:03.981Z,101966.41
2018-06-27T18:31:33.208Z,101966.27
2018-06-27T18:34:02.864Z,101966.39
2018-06-27T18:36:31.602Z,101975.20
2018-06-27T18:39:00.256Z,101976.92
2018-06-27T18:41:29.131Z,101971.06
2018-06-27T18:43:58.830Z,101980.44
2018-06-27T18:46:27.407Z,101979.25
2018-06-27T18:48:57.452Z,101973.41
2018-06-27T18:51:27.230Z,101974.47
2018-06-27T18:53:55.902Z,101974.64
2018-06-27T18:56:24.976Z,101974.64
2018-06-27T18:58:53.728Z,101977.02
2018-06-27T19:01:22.505Z,101981.70
2018-06-27T19:03:52.275Z,101977.73
2018-06-27T19:06:21.152Z,101983.38
2018-06-27T19:08:52.655Z,101989.41
2018-06-27T19:11:21.826Z,101988.90
2018-06-27T19:13:51.708Z,101991.30
2018-06-27T19:16:21.423Z,101990.94
2018-06-27T19:18:50.158Z,101996.00
2018-06-27T19:21:20.116Z,101994.41
2018-06-27T19:23:49.405Z,101993.47
2018-06-27T19:26:18.549Z,101987.06
2018-06-27T19:28:50.749Z,101990.54
2018-06-27T19:31:19.768Z,101994.05
2018-06-27T19:33:48.661Z,101998.92
2018-06-27T19:36:17.690Z,102004.86
2018-06-27T19:38:47.847Z,102000.20
2018-06-27T19:41:17.022Z,101999.33
2018-06-27T19:43:45.844Z,101999.66
2018-06-27T19:46:15.235Z,102001.71
2018-06-27T19:48:45.221Z,101999.83
2018-06-27T19:51:14.196Z,102002.59
2018-06-27T19:53:43.427Z,102013.55
2018-06-27T19:56:13.415Z,102007.78
2018-06-27T19:58:43.195Z,102009.68
2018-06-27T20:01:12.803Z,102015.41
2018-06-27T20:03:42.927Z,102015.20
2018-06-27T20:06:12.714Z,102019.52
2018-06-27T20:08:42.333Z,102021.30
2018-06-27T20:11:11.370Z,102019.40
2018-06-27T20:13:41.243Z,102015.39
2018-06-27T20:16:11.234Z,102011.89
2018-06-27T20:18:39.944Z,102011.89
2018-06-27T20:21:09.430Z,102015.50
2018-06-27T20:23:38.699Z,102024.76
2018-06-27T20:26:07.251Z,102022.36
2018-06-27T20:28:35.831Z,102027.16
2018-06-27T20:31:04.767Z,102021.80
2018-06-27T20:33:33.672Z,102027.11
2018-06-27T20:36:02.414Z,102025.60
2018-06-27T20:38:31.154Z,102026.84
2018-06-27T20:41:01.602Z,102028.74
2018-06-27T20:43:31.673Z,102031.09
2018-06-27T20:46:01.530Z,102031.74
2018-06-27T20:48:31.163Z,102025.66
2018-06-27T20:51:00.428Z,102034.13
2018-06-27T20:53:30.474Z,102036.66
2018-06-27T20:56:00.446Z,102031.59
2018-06-27T20:58:35.067Z,102035.57
2018-06-27T21:01:04.504Z,102035.15
2018-06-27T21:03:33.929Z,102036.59
2018-06-27T21:06:03.343Z,102037.32
2018-06-27T21:08:32.331Z,102047.32
2018-06-27T21:11:01.235Z,102034.38
2018-06-27T21:13:31.245Z,102044.06
2018-06-27T21:16:00.466Z,102038.78
2018-06-27T21:18:30.129Z,102035.47
2018-06-27T21:20:59.660Z,102038.14
2018-06-27T21:23:29.684Z,102040.22
2018-06-27T21:26:00.535Z,102043.59
2018-06-27T21:28:30.298Z,102052.88
2018-06-27T21:30:59.367Z,102049.33
2018-06-27T21:33:29.415Z,102053.62
2018-06-27T21:36:02.484Z,102060.71
2018-06-27T21:38:31.156Z,102056.63
2018-06-27T21:40:59.933Z,102057.19
2018-06-27T21:43:28.795Z,102062.07
2018-06-27T21:45:57.324Z,102061.81
2018-06-27T21:48:25.980Z,102063.65
2018-06-27T21:50:54.495Z,102061.69
2018-06-27T21:53:23.373Z,102065.16
2018-06-27T21:55:52.922Z,102064.41
2018-06-27T21:58:22.304Z,102059.98
2018-06-27T22:00:52.534Z,102069.61
2018-06-27T22:03:23.353Z,102069.02
2018-06-27T22:05:52.149Z,102062.05
2018-06-27T22:08:30.861Z,102065.56
2018-06-27T22:11:01.187Z,102056.84
2018-06-27T22:13:29.721Z,102058.70
2018-06-27T22:15:58.799Z,102060.32
2018-06-27T22:18:27.912Z,102058.10
2018-06-27T22:20:57.342Z,102065.70
2018-06-27T22:23:26.832Z,102068.23
2018-06-27T22:25:56.400Z,102058.93
2018-06-27T22:28:24.931Z,102055.71
2018-06-27T22:30:54.435Z,102051.93
2018-06-27T22:33:23.283Z,102053.13
2018-06-27T22:35:52.486Z,102052.05
2018-06-27T22:38:21.025Z,102051.80
2018-06-27T22:40:50.623Z,102047.26
2018-06-27T22:43:19.821Z,102056.86
2018-06-27T22:45:49.780Z,102057.68
2018-06-27T22:48:18.456Z,102053.63
2018-06-27T22:50:47.071Z,102049.87
2018-06-27T22:53:15.633Z,102053.63
2018-06-27T22:55:44.199Z,102053.00
2018-06-27T22:58:13.052Z,102050.48
2018-06-27T23:00:42.289Z,102048.16
2018-06-27T23:03:12.933Z,102047.94
2018-06-27T23:05:42.018Z,102052.11
2018-06-27T23:08:10.953Z,102042.41
2018-06-27T23:10:39.562Z,102047.63
2018-06-27T23:13:08.118Z,102046.06
2018-06-27T23:15:36.747Z,102043.20
2018-06-27T23:18:05.558Z,102044.31
2018-06-27T23:20:34.160Z,102038.00
2018-06-27T23:23:02.725Z,102047.34
2018-06-27T23:25:31.450Z,102039.18
2018-06-27T23:27:59.979Z,102039.44
2018-06-27T23:30:28.604Z,102037.53
2018-06-27T23:32:57.110Z,102039.49
2018-06-27T23:35:25.700Z,102037.28
2018-06-27T23:37:54.328Z,102033.84
2018-06-27T23:40:22.983Z,102036.31
2018-06-27T23:42:51.607Z,102037.96
2018-06-27T23:45:20.325Z,102032.52
2018-06-27T23:47:49.802Z,102041.31
2018-06-27T23:50:18.667Z,102034.48
2018-06-27T23:52:47.292Z,102027.43
2018-06-27T23:55:16.010Z,102031.26
2018-06-27T23:57:44.607Z,102028.86
